Time;durP1;ratioP1;P1;durP2;ratioP2;P2;SDS_P1;SDS_P2;PMS_P1;PMS_P2;Temp;Humidity;BMP_temperature;BMP_pressure;BME280_temperature;BME280_humidity;BME280_pressure;Samples;Min_cycle;Max_cycle;Signal;HPM_P1;HPM_P2
2023/04/19 00:02:19;;;;;;;14.93;9.93;;;;;;;;;;5069996;28;20430;-65
2023/04/19 00:04:44;;;;;;;12.50;10.00;;;;;;;;;;5071181;28;20214;-65
2023/04/19 00:07:10;;;;;;;12.95;9.73;;;;;;;;;;5089871;28;20221;-64
2023/04/19 00:09:35;;;;;;;12.80;9.95;;;;;;;;;;5081509;28;20360;-65
2023/04/19 00:12:01;;;;;;;15.98;9.73;;;;;;;;;;5069108;28;20297;-64
2023/04/19 00:14:26;;;;;;;14.65;10.23;;;;;;;;;;5069809;28;20221;-65
2023/04/19 00:16:51;;;;;;;13.38;10.20;;;;;;;;;;5062271;28;20214;-65
2023/04/19 00:19:16;;;;;;;12.35;9.63;;;;;;;;;;5070079;28;20957;-65
2023/04/19 00:21:42;;;;;;;13.65;10.27;;;;;;;;;;5073510;28;20209;-65
2023/04/19 00:24:07;;;;;;;15.18;10.57;;;;;;;;;;5090319;28;20210;-65
2023/04/19 00:26:32;;;;;;;14.65;10.35;;;;;;;;;;5090947;28;20561;-65
2023/04/19 00:28:58;;;;;;;13.98;10.18;;;;;;;;;;5089992;28;20288;-65
2023/04/19 00:31:23;;;;;;;14.25;10.40;;;;;;;;;;5090227;28;20636;-65
2023/04/19 00:33:48;;;;;;;15.68;11.45;;;;;;;;;;5077455;28;20229;-65
2023/04/19 00:36:14;;;;;;;17.10;12.05;;;;;;;;;;5069272;28;20210;-64
2023/04/19 00:38:39;;;;;;;16.55;11.25;;;;;;;;;;5070442;28;20304;-65
2023/04/19 00:41:04;;;;;;;18.38;11.73;;;;;;;;;;5069763;28;20202;-64
2023/04/19 00:43:30;;;;;;;14.13;11.18;;;;;;;;;;5069673;28;20661;-65
2023/04/19 00:45:55;;;;;;;15.15;11.98;;;;;;;;;;5070179;28;20207;-65
2023/04/19 00:48:20;;;;;;;16.70;11.80;;;;;;;;;;5069843;28;20198;-65
2023/04/19 00:50:46;;;;;;;14.15;11.63;;;;;;;;;;5069667;28;20301;-65
2023/04/19 00:53:11;;;;;;;14.40;11.00;;;;;;;;;;5069872;28;20207;-65
2023/04/19 00:55:37;;;;;;;13.45;10.63;;;;;;;;;;5068514;28;20217;-65
2023/04/19 00:58:03;;;;;;;14.68;11.35;;;;;;;;;;5069371;28;20230;-65
2023/04/19 01:00:28;;;;;;;17.65;11.55;;;;;;;;;;5068430;28;20576;-65
2023/04/19 01:02:54;;;;;;;12.82;10.57;;;;;;;;;;5070025;28;20210;-65
2023/04/19 01:05:19;;;;;;;15.10;11.63;;;;;;;;;;5068980;28;20668;-65
2023/04/19 01:07:45;;;;;;;15.20;10.70;;;;;;;;;;5070200;28;20233;-65
2023/04/19 01:10:10;;;;;;;14.38;10.93;;;;;;;;;;5067948;28;20221;-64
2023/04/19 01:12:35;;;;;;;17.48;11.55;;;;;;;;;;5068190;28;20205;-65
2023/04/19 01:15:01;;;;;;;15.40;11.80;;;;;;;;;;5069561;28;20623;-64
2023/04/19 01:17:26;;;;;;;16.55;11.60;;;;;;;;;;5088619;28;20254;-65
2023/04/19 01:19:59;;;;;;;17.05;12.32;;;;;;;;;;5090121;28;20298;-65
2023/04/19 01:22:24;;;;;;;14.95;11.07;;;;;;;;;;5083313;28;20683;-65
2023/04/19 01:24:50;;;;;;;16.73;11.27;;;;;;;;;;5073535;28;20206;-65
2023/04/19 01:27:16;;;;;;;14.35;11.23;;;;;;;;;;5072164;28;20293;-65
2023/04/19 01:29:42;;;;;;;14.80;11.48;;;;;;;;;;5074459;28;20677;-65
2023/04/19 01:32:07;;;;;;;17.10;10.75;;;;;;;;;;5070997;28;20198;-65
2023/04/19 01:34:32;;;;;;;15.80;11.63;;;;;;;;;;5074079;28;20226;-65
2023/04/19 01:36:57;;;;;;;18.17;11.63;;;;;;;;;;5073704;28;20214;-65
2023/04/19 01:39:24;;;;;;;17.38;12.23;;;;;;;;;;5072452;28;20222;-65
2023/04/19 01:41:50;;;;;;;15.48;11.25;;;;;;;;;;5073459;28;20295;-65
2023/04/19 01:44:15;;;;;;;15.57;11.55;;;;;;;;;;5073370;28;20215;-65
2023/04/19 01:46:41;;;;;;;15.95;11.18;;;;;;;;;;5072471;28;20639;-65
2023/04/19 01:49:07;;;;;;;14.43;10.57;;;;;;;;;;5073194;28;20208;-64
2023/04/19 01:51:32;;;;;;;14.43;11.15;;;;;;;;;;5073128;28;20206;-65
2023/04/19 01:53:57;;;;;;;16.83;11.55;;;;;;;;;;5073038;28;20210;-66
2023/04/19 01:56:23;;;;;;;15.40;11.20;;;;;;;;;;5070280;28;20214;-65
2023/04/19 01:58:48;;;;;;;15.43;11.23;;;;;;;;;;5064179;28;20234;-65
2023/04/19 02:01:13;;;;;;;14.65;10.60;;;;;;;;;;5078401;28;20242;-65
2023/04/19 02:03:39;;;;;;;14.77;10.77;;;;;;;;;;5063659;28;20210;-65
2023/04/19 02:06:04;;;;;;;15.30;12.00;;;;;;;;;;5073731;28;20210;-65
2023/04/19 02:08:29;;;;;;;15.68;11.32;;;;;;;;;;5073409;28;20793;-65
2023/04/19 02:10:55;;;;;;;13.93;11.15;;;;;;;;;;5056252;28;20202;-66
2023/04/19 02:13:20;;;;;;;15.82;11.07;;;;;;;;;;5076344;28;20214;-65
2023/04/19 02:15:45;;;;;;;13.45;10.57;;;;;;;;;;5075931;28;20225;-66
2023/04/19 02:18:12;;;;;;;13.93;11.00;;;;;;;;;;5077631;28;20237;-65
2023/04/19 02:20:37;;;;;;;17.30;11.82;;;;;;;;;;5062969;28;20561;-65
2023/04/19 02:23:03;;;;;;;13.02;10.43;;;;;;;;;;5062817;28;20206;-66
2023/04/19 02:25:28;;;;;;;19.13;11.32;;;;;;;;;;5063019;28;20589;-65
2023/04/19 02:27:53;;;;;;;17.27;11.60;;;;;;;;;;5058346;28;20682;-65
2023/04/19 02:30:19;;;;;;;15.48;11.13;;;;;;;;;;5054628;28;20268;-65
2023/04/19 02:32:46;;;;;;;16.10;10.63;;;;;;;;;;5056763;28;20232;-65
2023/04/19 02:35:11;;;;;;;13.45;10.45;;;;;;;;;;5058441;28;20843;-65
2023/04/19 02:37:36;;;;;;;13.55;10.85;;;;;;;;;;5062780;28;20408;-65
2023/04/19 02:40:04;;;;;;;13.55;10.57;;;;;;;;;;5062786;28;20221;-65
2023/04/19 02:42:29;;;;;;;14.77;10.77;;;;;;;;;;5061720;28;20215;-65
2023/04/19 02:44:54;;;;;;;14.45;10.27;;;;;;;;;;5062990;28;20225;-65
2023/04/19 02:47:20;;;;;;;16.23;10.30;;;;;;;;;;5061780;28;20225;-65
2023/04/19 02:49:45;;;;;;;12.40;8.55;;;;;;;;;;5060185;28;20309;-65
2023/04/19 02:52:11;;;;;;;13.93;9.63;;;;;;;;;;5054984;28;20219;-65
2023/04/19 02:54:36;;;;;;;14.38;9.43;;;;;;;;;;5054944;28;20237;-66
2023/04/19 02:57:01;;;;;;;14.10;8.73;;;;;;;;;;5055619;28;20728;-64
2023/04/19 02:59:27;;;;;;;13.40;9.10;;;;;;;;;;5061899;28;20222;-65
2023/04/19 03:01:52;;;;;;;12.38;9.02;;;;;;;;;;5062133;28;20256;-65
2023/04/19 03:04:17;;;;;;;13.85;9.25;;;;;;;;;;5061082;28;20631;-65
2023/04/19 03:06:43;;;;;;;12.18;8.70;;;;;;;;;;5078476;28;20744;-65
2023/04/19 03:09:09;;;;;;;13.05;9.27;;;;;;;;;;5076784;28;20214;-65
2023/04/19 03:11:34;;;;;;;13.80;8.38;;;;;;;;;;5081447;28;20660;-65
2023/04/19 03:13:59;;;;;;;12.00;8.55;;;;;;;;;;5075470;28;20255;-65
2023/04/19 03:16:25;;;;;;;13.55;8.70;;;;;;;;;;5063922;28;20770;-65
2023/04/19 03:18:50;;;;;;;12.77;9.18;;;;;;;;;;5071778;28;20312;-65
2023/04/19 03:21:16;;;;;;;10.98;8.70;;;;;;;;;;5080041;28;20304;-65
2023/04/19 03:23:41;;;;;;;11.18;8.20;;;;;;;;;;5061788;28;20260;-65
2023/04/19 03:26:06;;;;;;;11.00;7.80;;;;;;;;;;5060991;28;20317;-65
2023/04/19 03:28:31;;;;;;;12.10;7.97;;;;;;;;;;5061770;28;20669;-65
2023/04/19 03:30:57;;;;;;;11.57;7.95;;;;;;;;;;5061371;28;20198;-66
2023/04/19 03:33:22;;;;;;;11.80;8.50;;;;;;;;;;5060707;28;20202;-65
2023/04/19 03:35:47;;;;;;;10.63;7.80;;;;;;;;;;5058022;28;20264;-65
2023/04/19 03:38:13;;;;;;;12.98;7.28;;;;;;;;;;5052901;28;20897;-65
2023/04/19 03:40:38;;;;;;;10.68;7.43;;;;;;;;;;5053988;28;20202;-66
2023/04/19 03:43:03;;;;;;;11.05;7.55;;;;;;;;;;5056898;28;20253;-65
2023/04/19 03:45:29;;;;;;;10.57;8.10;;;;;;;;;;5060403;28;20665;-66
2023/04/19 03:47:54;;;;;;;10.15;7.22;;;;;;;;;;5062012;28;20214;-66
2023/04/19 03:50:19;;;;;;;9.50;7.00;;;;;;;;;;5060626;28;20322;-65
2023/04/19 03:52:45;;;;;;;14.40;7.40;;;;;;;;;;5061143;28;20215;-66
2023/04/19 03:55:11;;;;;;;12.00;7.30;;;;;;;;;;5079066;28;20209;-65
2023/04/19 03:57:36;;;;;;;12.18;7.18;;;;;;;;;;5079659;28;20356;-65
2023/04/19 04:00:05;;;;;;;9.40;7.30;;;;;;;;;;5073074;28;20845;-64
2023/04/19 04:02:31;;;;;;;11.02;6.93;;;;;;;;;;5073798;28;20304;-65
2023/04/19 04:04:56;;;;;;;9.10;6.95;;;;;;;;;;5073440;28;20209;-65
2023/04/19 04:07:22;;;;;;;10.60;7.53;;;;;;;;;;5078847;28;20205;-64
2023/04/19 04:09:47;;;;;;;9.75;6.82;;;;;;;;;;5079533;28;20220;-66
2023/04/19 04:12:13;;;;;;;11.77;7.28;;;;;;;;;;5080581;28;20633;-65
2023/04/19 04:14:38;;;;;;;9.10;7.00;;;;;;;;;;5080129;28;20218;-65
2023/04/19 04:17:03;;;;;;;10.75;6.95;;;;;;;;;;5065061;28;20969;-65
2023/04/19 04:19:29;;;;;;;10.27;7.15;;;;;;;;;;5060324;28;20221;-65
2023/04/19 04:21:54;;;;;;;10.50;7.22;;;;;;;;;;5069386;28;20202;-66
2023/04/19 04:24:21;;;;;;;11.45;7.47;;;;;;;;;;5052607;28;20228;-65
2023/04/19 04:26:48;;;;;;;11.48;7.80;;;;;;;;;;5072612;28;20242;-65
2023/04/19 04:29:14;;;;;;;12.20;8.15;;;;;;;;;;5078608;28;20803;-65
2023/04/19 04:31:39;;;;;;;9.57;7.57;;;;;;;;;;5080597;28;20202;-65
2023/04/19 04:34:05;;;;;;;10.82;7.43;;;;;;;;;;5080275;28;20433;-64
2023/04/19 04:36:30;;;;;;;11.38;7.68;;;;;;;;;;5079831;28;20205;-65
2023/04/19 04:38:56;;;;;;;11.02;7.88;;;;;;;;;;5080638;28;20741;-65
2023/04/19 04:41:21;;;;;;;11.82;7.95;;;;;;;;;;5078497;28;20235;-65
2023/04/19 04:43:50;;;;;;;10.30;7.38;;;;;;;;;;5076041;28;20206;-65
2023/04/19 04:46:15;;;;;;;10.70;7.05;;;;;;;;;;5072407;28;20734;-65
2023/04/19 04:48:41;;;;;;;9.32;6.82;;;;;;;;;;5072210;28;20205;-65
2023/04/19 04:51:06;;;;;;;11.55;7.10;;;;;;;;;;5074907;28;20209;-65
2023/04/19 04:53:31;;;;;;;10.02;6.95;;;;;;;;;;5080340;28;20209;-65
2023/04/19 04:55:56;;;;;;;11.25;6.65;;;;;;;;;;5079392;28;20213;-65
2023/04/19 04:58:22;;;;;;;10.15;7.07;;;;;;;;;;5080022;28;20624;-66
2023/04/19 05:00:47;;;;;;;9.00;6.43;;;;;;;;;;5080037;28;20267;-64
2023/04/19 05:03:13;;;;;;;8.85;6.65;;;;;;;;;;5078137;28;20231;-67
2023/04/19 05:05:38;;;;;;;9.53;6.87;;;;;;;;;;5075764;28;21206;-71
2023/04/19 05:08:04;;;;;;;9.53;7.30;;;;;;;;;;5068859;28;20500;-65
2023/04/19 05:10:29;;;;;;;9.50;6.55;;;;;;;;;;5055400;28;20216;-65
2023/04/19 05:12:54;;;;;;;10.18;7.15;;;;;;;;;;5055179;28;20245;-65
2023/04/19 05:15:20;;;;;;;11.40;6.47;;;;;;;;;;5059317;28;20587;-65
2023/04/19 05:17:45;;;;;;;10.48;6.47;;;;;;;;;;5059936;28;20324;-64
2023/04/19 05:20:11;;;;;;;10.55;6.90;;;;;;;;;;5059879;28;20222;-64
2023/04/19 05:22:36;;;;;;;8.32;6.00;;;;;;;;;;5059985;28;20218;-64
2023/04/19 05:25:01;;;;;;;9.40;6.30;;;;;;;;;;5059454;28;20218;-64
2023/04/19 05:27:27;;;;;;;8.82;6.20;;;;;;;;;;5060567;28;20218;-64
2023/04/19 05:29:52;;;;;;;9.20;6.65;;;;;;;;;;5054031;28;20213;-64
2023/04/19 05:32:17;;;;;;;10.35;6.55;;;;;;;;;;5051280;28;20685;-64
2023/04/19 05:34:43;;;;;;;9.07;6.28;;;;;;;;;;5051701;28;20359;-64
2023/04/19 05:37:08;;;;;;;7.03;5.67;;;;;;;;;;5058209;28;20818;-64
2023/04/19 05:39:33;;;;;;;10.45;6.55;;;;;;;;;;5060160;28;20230;-64
2023/04/19 05:41:59;;;;;;;8.90;5.97;;;;;;;;;;5059705;28;20211;-65
2023/04/19 05:44:24;;;;;;;10.65;6.28;;;;;;;;;;5079175;28;20241;-64
2023/04/19 05:46:50;;;;;;;11.73;5.80;;;;;;;;;;5079137;28;20225;-64
2023/04/19 05:49:15;;;;;;;8.75;6.07;;;;;;;;;;5079776;28;20755;-63
2023/04/19 05:51:40;;;;;;;8.95;5.95;;;;;;;;;;5075524;28;20214;-64
2023/04/19 05:54:05;;;;;;;7.97;5.78;;;;;;;;;;5063034;28;21682;-63
2023/04/19 05:56:31;;;;;;;8.30;5.78;;;;;;;;;;5052068;28;20210;-63
2023/04/19 05:58:57;;;;;;;8.43;5.53;;;;;;;;;;5055663;28;20242;-65
2023/04/19 06:01:22;;;;;;;10.40;5.70;;;;;;;;;;5078859;28;20217;-64
2023/04/19 06:03:51;;;;;;;8.13;5.47;;;;;;;;;;5079765;28;20684;-64
2023/04/19 06:06:17;;;;;;;8.02;5.22;;;;;;;;;;5079844;28;20222;-64
2023/04/19 06:08:42;;;;;;;11.15;5.85;;;;;;;;;;5082001;28;20221;-64
2023/04/19 06:11:07;;;;;;;9.05;5.63;;;;;;;;;;5062559;28;20316;-64
2023/04/19 06:13:33;;;;;;;9.00;5.45;;;;;;;;;;5075808;28;20214;-64
2023/04/19 06:15:58;;;;;;;11.70;5.67;;;;;;;;;;5055765;28;20264;-64
2023/04/19 06:18:23;;;;;;;8.65;5.25;;;;;;;;;;5054678;28;20313;-64
2023/04/19 06:20:49;;;;;;;9.68;5.68;;;;;;;;;;5057310;28;20293;-64
2023/04/19 06:23:14;;;;;;;10.02;5.70;;;;;;;;;;5062877;28;20218;-65
2023/04/19 06:25:40;;;;;;;8.73;5.53;;;;;;;;;;5063048;28;20241;-63
2023/04/19 06:28:05;;;;;;;9.05;4.90;;;;;;;;;;5081856;28;20220;-63
2023/04/19 06:30:30;;;;;;;9.02;4.68;;;;;;;;;;5082905;28;20561;-63
2023/04/19 06:32:56;;;;;;;7.35;4.32;;;;;;;;;;5082421;28;20211;-64
2023/04/19 06:35:21;;;;;;;6.90;4.40;;;;;;;;;;5082115;28;20218;-64
2023/04/19 06:37:46;;;;;;;10.20;5.22;;;;;;;;;;5075446;28;20291;-63
2023/04/19 06:40:12;;;;;;;7.72;4.28;;;;;;;;;;5074517;28;20213;-63
2023/04/19 06:42:37;;;;;;;7.25;4.32;;;;;;;;;;5074466;28;20574;-64
2023/04/19 06:45:02;;;;;;;8.10;4.03;;;;;;;;;;5081916;28;20289;-64
2023/04/19 06:47:28;;;;;;;6.50;4.43;;;;;;;;;;5074348;28;20240;-63
2023/04/19 06:49:53;;;;;;;7.53;4.00;;;;;;;;;;5061564;28;20213;-63
2023/04/19 06:52:19;;;;;;;6.13;3.80;;;;;;;;;;5061972;28;20214;-62
2023/04/19 06:54:48;;;;;;;10.73;3.92;;;;;;;;;;5062608;28;20657;-63
2023/04/19 06:57:13;;;;;;;5.68;3.60;;;;;;;;;;5061895;28;20700;-62
2023/04/19 06:59:38;;;;;;;6.97;4.00;;;;;;;;;;5057990;28;20210;-62
2023/04/19 07:02:04;;;;;;;7.60;3.83;;;;;;;;;;5069109;28;20211;-62
2023/04/19 07:04:29;;;;;;;5.88;3.42;;;;;;;;;;5091383;28;20661;-62
2023/04/19 07:06:55;;;;;;;8.73;3.47;;;;;;;;;;5072456;28;20211;-62
2023/04/19 07:09:20;;;;;;;6.35;3.65;;;;;;;;;;5077455;28;20229;-62
2023/04/19 07:11:46;;;;;;;6.10;3.15;;;;;;;;;;5092165;28;20661;-62
2023/04/19 07:14:12;;;;;;;4.80;3.13;;;;;;;;;;5089287;28;20240;-61
2023/04/19 07:16:37;;;;;;;7.38;3.42;;;;;;;;;;5083631;28;20688;-62
2023/04/19 07:19:03;;;;;;;5.63;3.08;;;;;;;;;;5091209;28;20214;-62
2023/04/19 07:21:32;;;;;;;5.30;3.22;;;;;;;;;;5089204;28;20634;-62
2023/04/19 07:23:57;;;;;;;5.97;3.08;;;;;;;;;;5070525;28;20220;-62
2023/04/19 07:26:22;;;;;;;6.97;3.30;;;;;;;;;;5090905;28;20657;-62
2023/04/19 07:28:48;;;;;;;7.20;3.10;;;;;;;;;;5091668;28;20259;-62
2023/04/19 07:31:15;;;;;;;7.70;3.25;;;;;;;;;;5090863;28;20241;-62
2023/04/19 07:33:40;;;;;;;6.65;3.20;;;;;;;;;;5091216;28;20672;-62
2023/04/19 07:36:06;;;;;;;5.80;3.20;;;;;;;;;;5090981;28;20229;-62
2023/04/19 07:38:31;;;;;;;6.22;3.30;;;;;;;;;;5090908;28;20228;-62
2023/04/19 07:40:57;;;;;;;5.45;2.90;;;;;;;;;;5091688;28;20216;-62
2023/04/19 07:43:22;;;;;;;7.50;3.03;;;;;;;;;;5090953;28;20620;-61
2023/04/19 07:45:47;;;;;;;5.50;2.90;;;;;;;;;;5091076;28;20230;-62
2023/04/19 07:48:12;;;;;;;9.10;3.28;;;;;;;;;;5090710;28;20271;-62
2023/04/19 07:50:38;;;;;;;5.32;3.20;;;;;;;;;;5089704;28;20202;-62
2023/04/19 07:53:03;;;;;;;9.48;3.50;;;;;;;;;;5090255;28;20263;-62
2023/04/19 07:55:28;;;;;;;5.40;2.67;;;;;;;;;;5091143;28;20231;-62
2023/04/19 07:57:54;;;;;;;5.15;2.55;;;;;;;;;;5091040;28;20221;-62
2023/04/19 08:00:21;;;;;;;6.07;2.60;;;;;;;;;;5090150;28;20216;-62
2023/04/19 08:02:46;;;;;;;7.63;2.95;;;;;;;;;;5076086;28;20599;-62
2023/04/19 08:05:12;;;;;;;4.95;2.42;;;;;;;;;;5080102;28;20237;-61
2023/04/19 08:07:37;;;;;;;3.42;2.20;;;;;;;;;;5090542;28;20210;-62
2023/04/19 08:10:03;;;;;;;4.45;2.40;;;;;;;;;;5077454;28;20245;-62
2023/04/19 08:12:29;;;;;;;3.53;2.20;;;;;;;;;;5069918;28;20233;-62
2023/04/19 08:14:54;;;;;;;5.20;1.90;;;;;;;;;;5070832;28;20202;-62
2023/04/19 08:17:20;;;;;;;6.32;2.08;;;;;;;;;;5081501;28;20250;-62
2023/04/19 08:19:48;;;;;;;3.53;1.95;;;;;;;;;;5081268;28;20271;-64
2023/04/19 08:22:13;;;;;;;3.42;1.88;;;;;;;;;;5080672;28;20206;-62
2023/04/19 08:24:38;;;;;;;4.00;2.30;;;;;;;;;;5084277;28;20282;-63
2023/04/19 08:27:04;;;;;;;5.18;1.77;;;;;;;;;;5089847;28;20673;-63
2023/04/19 08:29:29;;;;;;;3.67;1.60;;;;;;;;;;5090515;28;20213;-63
2023/04/19 08:31:55;;;;;;;4.07;1.80;;;;;;;;;;5090508;28;20210;-63
2023/04/19 08:34:20;;;;;;;4.15;1.70;;;;;;;;;;5089420;28;20430;-63
2023/04/19 08:36:45;;;;;;;3.50;1.88;;;;;;;;;;5090582;28;20213;-63
2023/04/19 08:39:11;;;;;;;3.78;1.48;;;;;;;;;;5089700;28;20217;-63
2023/04/19 08:41:37;;;;;;;2.60;1.63;;;;;;;;;;5089930;28;20267;-63
2023/04/19 08:44:02;;;;;;;4.53;1.50;;;;;;;;;;5090097;28;20670;-63
2023/04/19 08:46:27;;;;;;;5.22;1.70;;;;;;;;;;5090326;28;20205;-63
2023/04/19 08:48:53;;;;;;;2.67;1.50;;;;;;;;;;5083523;28;20201;-63
2023/04/19 08:51:18;;;;;;;5.80;2.55;;;;;;;;;;5085533;28;20578;-63
2023/04/19 08:53:44;;;;;;;3.25;1.50;;;;;;;;;;5081783;28;20263;-64
2023/04/19 08:56:09;;;;;;;2.47;1.50;;;;;;;;;;5069275;28;20289;-64
2023/04/19 08:58:34;;;;;;;3.33;1.45;;;;;;;;;;5068698;28;20310;-64
2023/04/19 09:01:01;;;;;;;4.53;1.73;;;;;;;;;;5069974;28;20202;-64
2023/04/19 09:03:26;;;;;;;5.50;1.90;;;;;;;;;;5068997;28;20637;-64
2023/04/19 09:05:52;;;;;;;5.60;1.52;;;;;;;;;;5070087;28;20293;-64
2023/04/19 09:08:21;;;;;;;3.35;1.50;;;;;;;;;;5069286;28;20238;-64
2023/04/19 09:10:51;;;;;;;5.35;1.70;;;;;;;;;;5069551;28;20268;-64
2023/04/19 09:13:17;;;;;;;11.55;9.02;;;;;;;;;;5074720;28;20230;-64
2023/04/19 09:15:43;;;;;;;3.75;2.08;;;;;;;;;;5065245;28;20207;-64
2023/04/19 09:18:09;;;;;;;5.10;2.67;;;;;;;;;;5066187;28;20300;-63
2023/04/19 09:20:34;;;;;;;3.50;2.25;;;;;;;;;;5051691;28;20230;-64
2023/04/19 09:23:04;;;;;;;4.50;2.17;;;;;;;;;;5069249;28;20673;-64
2023/04/19 09:25:30;;;;;;;3.65;2.20;;;;;;;;;;5069710;28;20248;-64
2023/04/19 09:27:55;;;;;;;3.85;2.47;;;;;;;;;;5069532;28;20198;-64
2023/04/19 09:30:20;;;;;;;3.95;2.22;;;;;;;;;;5067262;28;20226;-64
2023/04/19 09:32:46;;;;;;;3.33;1.90;;;;;;;;;;5079418;28;20267;-64
2023/04/19 09:35:11;;;;;;;5.70;2.22;;;;;;;;;;5071041;28;20210;-64
2023/04/19 09:37:40;;;;;;;5.63;2.28;;;;;;;;;;5087879;28;20202;-64
2023/04/19 09:40:21;;;;;;;3.63;1.90;;;;;;;;;;5088588;28;20577;-63
2023/04/19 09:42:46;;;;;;;5.72;1.95;;;;;;;;;;5085489;28;20209;-64
2023/04/19 09:45:12;;;;;;;2.78;1.80;;;;;;;;;;5072827;28;20256;-64
2023/04/19 09:47:37;;;;;;;6.32;1.88;;;;;;;;;;5073314;28;20214;-64
2023/04/19 09:50:03;;;;;;;4.97;1.80;;;;;;;;;;5072572;28;20202;-63
2023/04/19 09:52:28;;;;;;;3.92;1.70;;;;;;;;;;5073031;28;20281;-64
2023/04/19 09:54:54;;;;;;;3.05;1.70;;;;;;;;;;5073420;28;20688;-64
2023/04/19 09:57:20;;;;;;;4.03;1.63;;;;;;;;;;5071348;28;20826;-64
2023/04/19 09:59:45;;;;;;;3.60;1.65;;;;;;;;;;5072961;28;20230;-64
2023/04/19 10:02:10;;;;;;;3.20;1.70;;;;;;;;;;5072349;28;20218;-64
2023/04/19 10:04:36;;;;;;;4.30;1.83;;;;;;;;;;5071692;28;20292;-64
2023/04/19 10:07:01;;;;;;;2.88;1.67;;;;;;;;;;5079858;28;20206;-63
2023/04/19 10:09:27;;;;;;;2.50;1.52;;;;;;;;;;5076728;28;20223;-64
2023/04/19 10:11:52;;;;;;;5.47;1.77;;;;;;;;;;5072206;28;20203;-64
2023/04/19 10:14:20;;;;;;;4.07;2.30;;;;;;;;;;5076408;28;20230;-64
2023/04/19 10:16:46;;;;;;;2.88;1.80;;;;;;;;;;5064147;28;20251;-64
2023/04/19 10:19:11;;;;;;;3.70;1.90;;;;;;;;;;5070809;28;20246;-64
2023/04/19 10:21:37;;;;;;;3.05;1.90;;;;;;;;;;5071536;28;20735;-64
2023/04/19 10:24:02;;;;;;;4.35;1.67;;;;;;;;;;5080360;28;20696;-63
2023/04/19 10:26:28;;;;;;;4.72;2.20;;;;;;;;;;5070979;28;20288;-65
2023/04/19 10:28:56;;;;;;;5.55;2.20;;;;;;;;;;5090109;28;20209;-65
2023/04/19 10:31:22;;;;;;;4.10;1.88;;;;;;;;;;5092007;28;20564;-65
2023/04/19 10:33:47;;;;;;;3.25;1.92;;;;;;;;;;5092404;28;20206;-65
2023/04/19 10:36:13;;;;;;;4.32;1.80;;;;;;;;;;5092583;28;20213;-64
2023/04/19 10:38:43;;;;;;;3.05;1.88;;;;;;;;;;5092368;28;20309;-64
2023/04/19 10:41:14;;;;;;;2.80;1.73;;;;;;;;;;5090521;28;20225;-64
2023/04/19 10:43:43;;;;;;;4.82;2.00;;;;;;;;;;5091585;28;20221;-64
2023/04/19 10:46:09;;;;;;;4.18;2.00;;;;;;;;;;5091994;28;20210;-64
2023/04/19 10:48:36;;;;;;;3.10;2.00;;;;;;;;;;5092144;28;20202;-64
2023/04/19 10:51:04;;;;;;;6.50;1.90;;;;;;;;;;5090475;28;20214;-63
2023/04/19 10:53:42;;;;;;;3.40;1.88;;;;;;;;;;5090996;28;20229;-64
2023/04/19 10:56:07;;;;;;;4.28;2.22;;;;;;;;;;5091778;28;20209;-64
2023/04/19 10:58:53;;;;;;;3.40;1.70;;;;;;;;;;5092333;28;20220;-64
2023/04/19 11:01:30;;;;;;;6.00;1.98;;;;;;;;;;5091163;28;20587;-64
2023/04/19 11:03:56;;;;;;;6.72;2.63;;;;;;;;;;5092490;28;20210;-64
2023/04/19 11:06:25;;;;;;;6.75;2.08;;;;;;;;;;5077741;28;20277;-64
2023/04/19 11:08:51;;;;;;;4.80;2.22;;;;;;;;;;5080328;28;20225;-64
2023/04/19 11:11:16;;;;;;;5.15;1.90;;;;;;;;;;5070069;28;20568;-63
2023/04/19 11:13:42;;;;;;;3.65;1.75;;;;;;;;;;5070103;28;20655;-65
2023/04/19 11:16:07;;;;;;;4.03;2.13;;;;;;;;;;5077197;28;20280;-64
2023/04/19 11:18:33;;;;;;;3.90;2.10;;;;;;;;;;5091932;28;20248;-65
2023/04/19 11:21:00;;;;;;;7.15;2.30;;;;;;;;;;5091776;28;20209;-65
2023/04/19 11:23:25;;;;;;;5.45;1.90;;;;;;;;;;5090970;28;20224;-64
2023/04/19 11:25:51;;;;;;;4.55;1.83;;;;;;;;;;5091801;28;20202;-65
2023/04/19 11:28:16;;;;;;;3.92;2.10;;;;;;;;;;5091267;28;20595;-64
2023/04/19 11:30:41;;;;;;;5.38;2.20;;;;;;;;;;5091237;28;20254;-65
2023/04/19 11:33:07;;;;;;;6.10;2.20;;;;;;;;;;5089692;28;20248;-64
2023/04/19 11:35:32;;;;;;;4.53;1.85;;;;;;;;;;5091373;28;20209;-65
2023/04/19 11:37:57;;;;;;;4.78;2.25;;;;;;;;;;5089719;28;20316;-65
2023/04/19 11:40:24;;;;;;;6.07;1.90;;;;;;;;;;5090978;28;20586;-65
2023/04/19 11:42:54;;;;;;;4.72;2.20;;;;;;;;;;5090082;28;20206;-65
2023/04/19 11:45:23;;;;;;;3.55;2.08;;;;;;;;;;5090297;28;20347;-65
2023/04/19 11:47:49;;;;;;;5.63;2.25;;;;;;;;;;5090982;28;20711;-65
2023/04/19 11:50:33;;;;;;;5.78;2.00;;;;;;;;;;5091029;28;20217;-65
2023/04/19 11:52:59;;;;;;;5.53;2.30;;;;;;;;;;5091301;28;20224;-65
2023/04/19 11:55:25;;;;;;;5.80;2.38;;;;;;;;;;5090564;28;20197;-64
2023/04/19 11:57:50;;;;;;;4.30;2.10;;;;;;;;;;5089568;28;20256;-65
2023/04/19 12:00:16;;;;;;;4.50;2.20;;;;;;;;;;5088624;28;20217;-65
2023/04/19 12:02:41;;;;;;;4.15;2.03;;;;;;;;;;5069887;28;20211;-65
2023/04/19 12:05:08;;;;;;;5.57;2.08;;;;;;;;;;5069778;28;20224;-64
2023/04/19 12:07:33;;;;;;;5.03;1.98;;;;;;;;;;5070530;28;20211;-64
2023/04/19 12:10:06;;;;;;;7.18;2.28;;;;;;;;;;5082573;28;20206;-65
2023/04/19 12:12:31;;;;;;;5.20;2.10;;;;;;;;;;5082602;28;20198;-65
2023/04/19 12:14:57;;;;;;;3.53;2.22;;;;;;;;;;5070612;28;20275;-65
2023/04/19 12:17:22;;;;;;;3.85;2.20;;;;;;;;;;5069324;28;20203;-65
2023/04/19 12:19:47;;;;;;;4.38;2.28;;;;;;;;;;5068894;28;20230;-65
2023/04/19 12:22:13;;;;;;;4.70;2.20;;;;;;;;;;5069940;28;20234;-64
2023/04/19 12:24:39;;;;;;;5.15;2.28;;;;;;;;;;5069168;28;20221;-65
2023/04/19 12:27:05;;;;;;;4.38;2.25;;;;;;;;;;5068073;28;20581;-64
2023/04/19 12:29:30;;;;;;;3.67;2.40;;;;;;;;;;5069222;28;20206;-65
2023/04/19 12:31:55;;;;;;;5.80;2.90;;;;;;;;;;5069611;28;20242;-65
2023/04/19 12:34:21;;;;;;;5.32;2.60;;;;;;;;;;5069561;28;20689;-65
2023/04/19 12:36:46;;;;;;;4.68;2.70;;;;;;;;;;5070388;28;20202;-65
2023/04/19 12:39:12;;;;;;;3.92;2.58;;;;;;;;;;5069560;28;20242;-64
2023/04/19 12:41:37;;;;;;;6.13;3.00;;;;;;;;;;5069721;28;20203;-65
2023/04/19 12:44:02;;;;;;;4.28;2.70;;;;;;;;;;5069833;28;20255;-65
2023/04/19 12:46:28;;;;;;;5.60;2.47;;;;;;;;;;5068470;28;20218;-65
2023/04/19 12:48:53;;;;;;;6.38;3.00;;;;;;;;;;5069890;28;20210;-65
2023/04/19 12:51:18;;;;;;;5.07;3.00;;;;;;;;;;5069462;28;20210;-65
2023/04/19 12:53:48;;;;;;;4.57;2.58;;;;;;;;;;5070220;28;20648;-65
2023/04/19 12:56:14;;;;;;;6.95;2.70;;;;;;;;;;5072393;28;20263;-63
2023/04/19 12:58:40;;;;;;;7.30;2.70;;;;;;;;;;5076152;28;20234;-64
2023/04/19 13:01:05;;;;;;;7.57;2.65;;;;;;;;;;5057662;28;20796;-64
2023/04/19 13:03:31;;;;;;;5.95;2.55;;;;;;;;;;5055365;28;20301;-65
2023/04/19 13:05:57;;;;;;;4.72;2.53;;;;;;;;;;5063395;28;20244;-65
2023/04/19 13:08:22;;;;;;;5.22;2.53;;;;;;;;;;5066398;28;20336;-65
2023/04/19 13:10:47;;;;;;;4.32;2.45;;;;;;;;;;5065567;28;20285;-65
2023/04/19 13:13:13;;;;;;;4.65;2.67;;;;;;;;;;5064594;28;20210;-64
2023/04/19 13:15:40;;;;;;;4.85;2.60;;;;;;;;;;5071151;28;20625;-64
2023/04/19 13:18:05;;;;;;;5.05;2.22;;;;;;;;;;5087484;28;20225;-64
2023/04/19 13:20:31;;;;;;;5.60;2.20;;;;;;;;;;5084638;28;20259;-64
2023/04/19 13:22:56;;;;;;;5.00;2.25;;;;;;;;;;5058318;28;20360;-65
2023/04/19 13:25:22;;;;;;;4.78;2.42;;;;;;;;;;5060308;28;20422;-65
2023/04/19 13:27:47;;;;;;;5.03;2.40;;;;;;;;;;5081485;28;20736;-65
2023/04/19 13:30:12;;;;;;;7.70;2.38;;;;;;;;;;5086961;28;20240;-64
2023/04/19 13:32:38;;;;;;;4.70;2.50;;;;;;;;;;5085784;28;20240;-64
2023/04/19 13:35:03;;;;;;;7.40;2.20;;;;;;;;;;5087194;28;20205;-64
2023/04/19 13:37:29;;;;;;;4.30;2.40;;;;;;;;;;5087131;28;20264;-65
2023/04/19 13:39:54;;;;;;;4.20;2.10;;;;;;;;;;5087920;28;20213;-64
2023/04/19 13:42:19;;;;;;;10.85;2.42;;;;;;;;;;5086349;28;20220;-66
2023/04/19 13:44:44;;;;;;;3.95;2.25;;;;;;;;;;5080645;28;20571;-65
2023/04/19 13:47:10;;;;;;;6.05;2.30;;;;;;;;;;5079030;28;20401;-64
2023/04/19 13:49:35;;;;;;;5.43;2.50;;;;;;;;;;5063327;28;20661;-65
2023/04/19 13:52:00;;;;;;;4.25;2.20;;;;;;;;;;5065966;28;20211;-66
2023/04/19 13:54:26;;;;;;;4.88;2.20;;;;;;;;;;5066714;28;20210;-65
2023/04/19 13:56:51;;;;;;;8.43;2.40;;;;;;;;;;5067624;28;20245;-64
2023/04/19 13:59:16;;;;;;;6.05;3.40;;;;;;;;;;5067008;28;20238;-66
2023/04/19 14:01:42;;;;;;;6.30;2.40;;;;;;;;;;5066130;28;20657;-65
2023/04/19 14:04:07;;;;;;;5.35;2.63;;;;;;;;;;5066922;28;20289;-64
2023/04/19 14:06:32;;;;;;;3.55;2.28;;;;;;;;;;5067504;28;20684;-66
2023/04/19 14:08:57;;;;;;;6.72;2.67;;;;;;;;;;5075678;28;20279;-65
2023/04/19 14:11:24;;;;;;;4.90;2.30;;;;;;;;;;5058150;28;20552;-66
2023/04/19 14:13:49;;;;;;;3.25;1.92;;;;;;;;;;5062139;28;20250;-65
2023/04/19 14:16:14;;;;;;;4.30;2.13;;;;;;;;;;5076357;28;20684;-66
2023/04/19 14:18:40;;;;;;;4.55;2.30;;;;;;;;;;5064891;28;20268;-65
2023/04/19 14:21:05;;;;;;;5.07;2.47;;;;;;;;;;5066847;28;20263;-65
2023/04/19 14:23:31;;;;;;;4.43;2.67;;;;;;;;;;5067148;28;20306;-65
2023/04/19 14:25:56;;;;;;;4.97;2.55;;;;;;;;;;5066179;28;20217;-66
2023/04/19 14:28:22;;;;;;;6.47;2.40;;;;;;;;;;5064904;28;20427;-65